sensor_id;sensor_type;location;lat;lon;timestamp;P1;durP1;ratioP1;P2;durP2;ratioP2
54384;SDS011;40284;52.878;5.998;2023-04-25T00:01:47;10.68;;;4.72;;
54384;SDS011;40284;52.878;5.998;2023-04-25T00:04:13;18.45;;;4.20;;
54384;SDS011;40284;52.878;5.998;2023-04-25T00:06:39;18.58;;;4.15;;
54384;SDS011;40284;52.878;5.998;2023-04-25T00:09:05;18.30;;;4.25;;
54384;SDS011;40284;52.878;5.998;2023-04-25T00:11:34;11.65;;;4.65;;
54384;SDS011;40284;52.878;5.998;2023-04-25T00:14:00;12.38;;;3.78;;
54384;SDS011;40284;52.878;5.998;2023-04-25T00:16:27;16.88;;;4.10;;
54384;SDS011;40284;52.878;5.998;2023-04-25T00:18:54;20.52;;;4.70;;
54384;SDS011;40284;52.878;5.998;2023-04-25T00:21:20;15.68;;;3.60;;
54384;SDS011;40284;52.878;5.998;2023-04-25T00:23:47;14.43;;;3.95;;
54384;SDS011;40284;52.878;5.998;2023-04-25T00:26:13;17.88;;;4.18;;
54384;SDS011;40284;52.878;5.998;2023-04-25T00:28:39;18.30;;;5.28;;
54384;SDS011;40284;52.878;5.998;2023-04-25T00:31:06;20.90;;;6.15;;
54384;SDS011;40284;52.878;5.998;2023-04-25T00:43:03;21.30;;;4.18;;
54384;SDS011;40284;52.878;5.998;2023-04-25T00:45:39;17.27;;;4.00;;
54384;SDS011;40284;52.878;5.998;2023-04-25T00:48:05;16.45;;;4.07;;
54384;SDS011;40284;52.878;5.998;2023-04-25T00:50:35;15.85;;;4.22;;
54384;SDS011;40284;52.878;5.998;2023-04-25T00:53:02;16.70;;;4.38;;
54384;SDS011;40284;52.878;5.998;2023-04-25T00:55:28;11.77;;;4.25;;
54384;SDS011;40284;52.878;5.998;2023-04-25T00:57:56;19.80;;;3.92;;
54384;SDS011;40284;52.878;5.998;2023-04-25T01:00:22;13.15;;;3.65;;
54384;SDS011;40284;52.878;5.998;2023-04-25T01:02:49;13.15;;;3.90;;
54384;SDS011;40284;52.878;5.998;2023-04-25T01:05:15;15.60;;;4.53;;
54384;SDS011;40284;52.878;5.998;2023-04-25T01:07:43;18.77;;;5.90;;
54384;SDS011;40284;52.878;5.998;2023-04-25T01:10:10;15.60;;;4.13;;
54384;SDS011;40284;52.878;5.998;2023-04-25T01:12:36;18.27;;;4.10;;
54384;SDS011;40284;52.878;5.998;2023-04-25T01:15:03;24.10;;;5.10;;
54384;SDS011;40284;52.878;5.998;2023-04-25T01:17:29;20.85;;;5.03;;
54384;SDS011;40284;52.878;5.998;2023-04-25T01:19:56;13.48;;;4.15;;
54384;SDS011;40284;52.878;5.998;2023-04-25T01:22:22;17.17;;;4.68;;
54384;SDS011;40284;52.878;5.998;2023-04-25T01:24:48;24.60;;;4.30;;
54384;SDS011;40284;52.878;5.998;2023-04-25T01:27:15;19.00;;;3.80;;
54384;SDS011;40284;52.878;5.998;2023-04-25T01:29:41;19.35;;;4.10;;
54384;SDS011;40284;52.878;5.998;2023-04-25T01:32:07;24.30;;;5.57;;
54384;SDS011;40284;52.878;5.998;2023-04-25T01:34:34;18.60;;;4.47;;
54384;SDS011;40284;52.878;5.998;2023-04-25T01:37:00;18.05;;;3.80;;
54384;SDS011;40284;52.878;5.998;2023-04-25T01:39:26;16.15;;;6.25;;
54384;SDS011;40284;52.878;5.998;2023-04-25T01:41:53;14.20;;;3.75;;
54384;SDS011;40284;52.878;5.998;2023-04-25T01:44:19;18.30;;;4.95;;
54384;SDS011;40284;52.878;5.998;2023-04-25T01:46:45;15.88;;;4.53;;
54384;SDS011;40284;52.878;5.998;2023-04-25T01:49:11;17.27;;;3.80;;
54384;SDS011;40284;52.878;5.998;2023-04-25T01:51:37;14.57;;;4.68;;
54384;SDS011;40284;52.878;5.998;2023-04-25T01:54:03;16.00;;;4.53;;
54384;SDS011;40284;52.878;5.998;2023-04-25T01:56:30;11.55;;;2.80;;
54384;SDS011;40284;52.878;5.998;2023-04-25T01:58:56;20.13;;;4.15;;
54384;SDS011;40284;52.878;5.998;2023-04-25T02:01:22;16.45;;;3.55;;
54384;SDS011;40284;52.878;5.998;2023-04-25T02:03:49;10.23;;;4.28;;
54384;SDS011;40284;52.878;5.998;2023-04-25T02:06:15;19.45;;;3.95;;
54384;SDS011;40284;52.878;5.998;2023-04-25T02:08:41;17.08;;;4.30;;
54384;SDS011;40284;52.878;5.998;2023-04-25T02:11:07;18.80;;;3.78;;
54384;SDS011;40284;52.878;5.998;2023-04-25T02:13:33;16.45;;;4.15;;
54384;SDS011;40284;52.878;5.998;2023-04-25T02:15:59;12.35;;;3.72;;
54384;SDS011;40284;52.878;5.998;2023-04-25T02:18:25;10.52;;;3.40;;
54384;SDS011;40284;52.878;5.998;2023-04-25T02:20:51;8.70;;;2.80;;
54384;SDS011;40284;52.878;5.998;2023-04-25T02:23:17;13.27;;;3.13;;
54384;SDS011;40284;52.878;5.998;2023-04-25T02:25:44;9.20;;;2.95;;
54384;SDS011;40284;52.878;5.998;2023-04-25T02:28:10;19.83;;;4.15;;
54384;SDS011;40284;52.878;5.998;2023-04-25T02:30:36;18.58;;;4.28;;
54384;SDS011;40284;52.878;5.998;2023-04-25T02:33:02;13.57;;;3.35;;
54384;SDS011;40284;52.878;5.998;2023-04-25T02:35:28;12.95;;;3.88;;
54384;SDS011;40284;52.878;5.998;2023-04-25T02:37:54;17.13;;;4.50;;
54384;SDS011;40284;52.878;5.998;2023-04-25T02:40:20;15.20;;;4.78;;
54384;SDS011;40284;52.878;5.998;2023-04-25T02:42:47;12.10;;;4.22;;
54384;SDS011;40284;52.878;5.998;2023-04-25T02:45:13;17.00;;;5.15;;
54384;SDS011;40284;52.878;5.998;2023-04-25T02:47:39;20.05;;;5.18;;
54384;SDS011;40284;52.878;5.998;2023-04-25T02:50:05;13.50;;;3.22;;
54384;SDS011;40284;52.878;5.998;2023-04-25T02:52:31;11.48;;;3.20;;
54384;SDS011;40284;52.878;5.998;2023-04-25T02:54:57;11.38;;;3.08;;
54384;SDS011;40284;52.878;5.998;2023-04-25T02:57:24;11.43;;;2.83;;
54384;SDS011;40284;52.878;5.998;2023-04-25T02:59:50;9.07;;;2.20;;
54384;SDS011;40284;52.878;5.998;2023-04-25T03:02:16;10.30;;;2.58;;
54384;SDS011;40284;52.878;5.998;2023-04-25T03:04:42;6.35;;;2.47;;
54384;SDS011;40284;52.878;5.998;2023-04-25T03:07:08;8.85;;;3.42;;
54384;SDS011;40284;52.878;5.998;2023-04-25T03:09:34;6.15;;;1.98;;
54384;SDS011;40284;52.878;5.998;2023-04-25T03:12:00;11.82;;;2.15;;
54384;SDS011;40284;52.878;5.998;2023-04-25T03:14:26;8.02;;;2.40;;
54384;SDS011;40284;52.878;5.998;2023-04-25T03:16:52;6.40;;;1.90;;
54384;SDS011;40284;52.878;5.998;2023-04-25T03:19:18;8.23;;;1.88;;
54384;SDS011;40284;52.878;5.998;2023-04-25T03:21:45;7.90;;;1.80;;
54384;SDS011;40284;52.878;5.998;2023-04-25T03:24:11;11.40;;;5.15;;
54384;SDS011;40284;52.878;5.998;2023-04-25T03:26:37;11.93;;;3.35;;
54384;SDS011;40284;52.878;5.998;2023-04-25T03:29:03;13.27;;;3.60;;
54384;SDS011;40284;52.878;5.998;2023-04-25T03:31:30;12.18;;;3.33;;
54384;SDS011;40284;52.878;5.998;2023-04-25T03:33:56;11.25;;;3.90;;
54384;SDS011;40284;52.878;5.998;2023-04-25T03:36:22;13.30;;;4.10;;
54384;SDS011;40284;52.878;5.998;2023-04-25T03:38:48;16.15;;;3.40;;
54384;SDS011;40284;52.878;5.998;2023-04-25T03:41:15;8.35;;;2.50;;
54384;SDS011;40284;52.878;5.998;2023-04-25T03:43:41;8.50;;;2.58;;
54384;SDS011;40284;52.878;5.998;2023-04-25T03:46:07;12.30;;;2.85;;
54384;SDS011;40284;52.878;5.998;2023-04-25T03:48:33;14.13;;;3.75;;
54384;SDS011;40284;52.878;5.998;2023-04-25T03:50:59;6.93;;;1.98;;
54384;SDS011;40284;52.878;5.998;2023-04-25T03:53:25;8.00;;;3.05;;
54384;SDS011;40284;52.878;5.998;2023-04-25T03:55:51;11.75;;;3.92;;
54384;SDS011;40284;52.878;5.998;2023-04-25T03:58:17;13.27;;;4.25;;
54384;SDS011;40284;52.878;5.998;2023-04-25T04:00:43;11.32;;;3.47;;
54384;SDS011;40284;52.878;5.998;2023-04-25T04:03:09;9.73;;;3.05;;
54384;SDS011;40284;52.878;5.998;2023-04-25T04:05:36;9.52;;;2.53;;
54384;SDS011;40284;52.878;5.998;2023-04-25T04:08:05;13.88;;;2.90;;
54384;SDS011;40284;52.878;5.998;2023-04-25T04:10:31;11.05;;;3.08;;
54384;SDS011;40284;52.878;5.998;2023-04-25T04:12:57;7.45;;;2.42;;
54384;SDS011;40284;52.878;5.998;2023-04-25T04:15:23;7.82;;;2.10;;
54384;SDS011;40284;52.878;5.998;2023-04-25T04:17:51;13.40;;;3.65;;
54384;SDS011;40284;52.878;5.998;2023-04-25T04:20:17;8.63;;;4.90;;
54384;SDS011;40284;52.878;5.998;2023-04-25T04:22:43;11.73;;;3.67;;
54384;SDS011;40284;52.878;5.998;2023-04-25T04:25:09;11.20;;;3.70;;
54384;SDS011;40284;52.878;5.998;2023-04-25T04:27:36;17.95;;;4.25;;
54384;SDS011;40284;52.878;5.998;2023-04-25T04:30:03;13.27;;;4.93;;
54384;SDS011;40284;52.878;5.998;2023-04-25T04:32:29;9.63;;;2.90;;
54384;SDS011;40284;52.878;5.998;2023-04-25T04:34:55;8.63;;;2.72;;
54384;SDS011;40284;52.878;5.998;2023-04-25T04:37:22;9.88;;;2.67;;
54384;SDS011;40284;52.878;5.998;2023-04-25T04:39:49;13.50;;;2.72;;
54384;SDS011;40284;52.878;5.998;2023-04-25T04:42:15;13.77;;;2.58;;
54384;SDS011;40284;52.878;5.998;2023-04-25T04:44:42;14.70;;;4.95;;
54384;SDS011;40284;52.878;5.998;2023-04-25T04:47:09;10.38;;;2.38;;
54384;SDS011;40284;52.878;5.998;2023-04-25T04:49:35;10.73;;;2.72;;
54384;SDS011;40284;52.878;5.998;2023-04-25T04:52:01;11.23;;;2.70;;
54384;SDS011;40284;52.878;5.998;2023-04-25T04:54:27;8.13;;;2.88;;
54384;SDS011;40284;52.878;5.998;2023-04-25T04:56:53;10.77;;;2.55;;
54384;SDS011;40284;52.878;5.998;2023-04-25T04:59:20;10.13;;;2.35;;
54384;SDS011;40284;52.878;5.998;2023-04-25T05:01:46;16.35;;;2.58;;
54384;SDS011;40284;52.878;5.998;2023-04-25T05:04:12;11.85;;;3.35;;
54384;SDS011;40284;52.878;5.998;2023-04-25T05:06:38;14.13;;;3.50;;
54384;SDS011;40284;52.878;5.998;2023-04-25T05:09:05;12.95;;;3.28;;
54384;SDS011;40284;52.878;5.998;2023-04-25T05:11:31;10.93;;;2.72;;
54384;SDS011;40284;52.878;5.998;2023-04-25T05:13:57;13.32;;;2.40;;
54384;SDS011;40284;52.878;5.998;2023-04-25T05:16:23;11.00;;;2.35;;
54384;SDS011;40284;52.878;5.998;2023-04-25T05:18:50;14.55;;;2.22;;
54384;SDS011;40284;52.878;5.998;2023-04-25T05:21:16;8.13;;;2.30;;
54384;SDS011;40284;52.878;5.998;2023-04-25T05:23:42;8.77;;;2.20;;
54384;SDS011;40284;52.878;5.998;2023-04-25T05:26:09;10.30;;;2.25;;
54384;SDS011;40284;52.878;5.998;2023-04-25T05:28:41;9.55;;;2.17;;
54384;SDS011;40284;52.878;5.998;2023-04-25T05:31:09;6.38;;;2.65;;
54384;SDS011;40284;52.878;5.998;2023-04-25T05:33:35;16.75;;;4.00;;
54384;SDS011;40284;52.878;5.998;2023-04-25T05:36:01;15.32;;;3.88;;
54384;SDS011;40284;52.878;5.998;2023-04-25T05:38:27;9.60;;;2.85;;
54384;SDS011;40284;52.878;5.998;2023-04-25T05:40:53;7.18;;;3.28;;
54384;SDS011;40284;52.878;5.998;2023-04-25T05:43:19;12.38;;;2.95;;
54384;SDS011;40284;52.878;5.998;2023-04-25T05:45:46;10.23;;;2.75;;
54384;SDS011;40284;52.878;5.998;2023-04-25T05:48:12;6.93;;;1.80;;
54384;SDS011;40284;52.878;5.998;2023-04-25T05:50:38;9.88;;;1.60;;
54384;SDS011;40284;52.878;5.998;2023-04-25T05:53:04;9.25;;;1.80;;
54384;SDS011;40284;52.878;5.998;2023-04-25T05:55:31;7.80;;;2.58;;
54384;SDS011;40284;52.878;5.998;2023-04-25T05:57:57;7.88;;;2.40;;
54384;SDS011;40284;52.878;5.998;2023-04-25T06:00:23;6.82;;;1.90;;
54384;SDS011;40284;52.878;5.998;2023-04-25T06:02:49;12.70;;;2.20;;
54384;SDS011;40284;52.878;5.998;2023-04-25T06:05:15;10.40;;;2.22;;
54384;SDS011;40284;52.878;5.998;2023-04-25T06:07:41;6.90;;;2.47;;
54384;SDS011;40284;52.878;5.998;2023-04-25T06:10:08;14.23;;;3.88;;
54384;SDS011;40284;52.878;5.998;2023-04-25T06:12:34;8.95;;;2.17;;
54384;SDS011;40284;52.878;5.998;2023-04-25T06:15:00;7.43;;;1.83;;
54384;SDS011;40284;52.878;5.998;2023-04-25T06:17:27;7.03;;;1.95;;
54384;SDS011;40284;52.878;5.998;2023-04-25T06:19:53;10.02;;;2.00;;
54384;SDS011;40284;52.878;5.998;2023-04-25T06:22:19;7.90;;;2.00;;
54384;SDS011;40284;52.878;5.998;2023-04-25T06:24:45;11.40;;;2.40;;
54384;SDS011;40284;52.878;5.998;2023-04-25T06:27:11;10.20;;;2.78;;
54384;SDS011;40284;52.878;5.998;2023-04-25T06:29:37;9.73;;;2.25;;
54384;SDS011;40284;52.878;5.998;2023-04-25T06:32:03;10.02;;;2.17;;
54384;SDS011;40284;52.878;5.998;2023-04-25T06:34:29;13.82;;;2.08;;
54384;SDS011;40284;52.878;5.998;2023-04-25T06:36:55;12.85;;;2.25;;
54384;SDS011;40284;52.878;5.998;2023-04-25T06:39:22;11.27;;;1.73;;
54384;SDS011;40284;52.878;5.998;2023-04-25T06:41:49;13.38;;;2.60;;
54384;SDS011;40284;52.878;5.998;2023-04-25T06:44:16;13.23;;;3.75;;
54384;SDS011;40284;52.878;5.998;2023-04-25T06:46:42;11.82;;;2.00;;
54384;SDS011;40284;52.878;5.998;2023-04-25T06:49:08;14.32;;;2.83;;
54384;SDS011;40284;52.878;5.998;2023-04-25T06:51:34;11.07;;;2.28;;
54384;SDS011;40284;52.878;5.998;2023-04-25T06:54:00;10.55;;;2.42;;
54384;SDS011;40284;52.878;5.998;2023-04-25T06:56:26;10.75;;;2.75;;
54384;SDS011;40284;52.878;5.998;2023-04-25T06:58:54;16.60;;;2.33;;
54384;SDS011;40284;52.878;5.998;2023-04-25T07:01:20;18.23;;;2.88;;
54384;SDS011;40284;52.878;5.998;2023-04-25T07:03:46;8.63;;;2.50;;
54384;SDS011;40284;52.878;5.998;2023-04-25T07:06:12;8.00;;;2.20;;
54384;SDS011;40284;52.878;5.998;2023-04-25T07:08:38;14.40;;;2.58;;
54384;SDS011;40284;52.878;5.998;2023-04-25T07:11:05;12.60;;;2.30;;
54384;SDS011;40284;52.878;5.998;2023-04-25T07:13:31;13.32;;;1.98;;
54384;SDS011;40284;52.878;5.998;2023-04-25T07:15:57;11.70;;;2.83;;
54384;SDS011;40284;52.878;5.998;2023-04-25T07:18:23;14.50;;;3.38;;
54384;SDS011;40284;52.878;5.998;2023-04-25T07:20:49;11.35;;;2.53;;
54384;SDS011;40284;52.878;5.998;2023-04-25T07:23:15;8.48;;;1.70;;
54384;SDS011;40284;52.878;5.998;2023-04-25T07:25:41;14.00;;;2.40;;
54384;SDS011;40284;52.878;5.998;2023-04-25T07:28:07;7.95;;;2.13;;
54384;SDS011;40284;52.878;5.998;2023-04-25T07:30:33;13.55;;;2.40;;
54384;SDS011;40284;52.878;5.998;2023-04-25T07:33:00;11.57;;;2.22;;
54384;SDS011;40284;52.878;5.998;2023-04-25T07:35:26;9.98;;;2.75;;
54384;SDS011;40284;52.878;5.998;2023-04-25T07:37:52;7.45;;;1.58;;
54384;SDS011;40284;52.878;5.998;2023-04-25T07:40:18;8.20;;;1.60;;
54384;SDS011;40284;52.878;5.998;2023-04-25T07:42:44;7.80;;;1.73;;
54384;SDS011;40284;52.878;5.998;2023-04-25T07:45:10;9.75;;;3.20;;
54384;SDS011;40284;52.878;5.998;2023-04-25T07:47:36;3.92;;;1.10;;
54384;SDS011;40284;52.878;5.998;2023-04-25T07:50:03;6.38;;;1.30;;
54384;SDS011;40284;52.878;5.998;2023-04-25T07:52:29;6.10;;;1.30;;
54384;SDS011;40284;52.878;5.998;2023-04-25T07:54:56;7.13;;;1.90;;
54384;SDS011;40284;52.878;5.998;2023-04-25T07:57:23;7.65;;;2.20;;
54384;SDS011;40284;52.878;5.998;2023-04-25T07:59:49;5.28;;;2.13;;
54384;SDS011;40284;52.878;5.998;2023-04-25T08:02:15;6.00;;;2.05;;
54384;SDS011;40284;52.878;5.998;2023-04-25T08:04:41;6.00;;;2.05;;
54384;SDS011;40284;52.878;5.998;2023-04-25T08:07:08;7.57;;;1.98;;
54384;SDS011;40284;52.878;5.998;2023-04-25T08:09:34;8.10;;;2.15;;
54384;SDS011;40284;52.878;5.998;2023-04-25T08:12:02;7.82;;;2.58;;
54384;SDS011;40284;52.878;5.998;2023-04-25T08:14:28;9.30;;;2.15;;
54384;SDS011;40284;52.878;5.998;2023-04-25T08:16:56;6.70;;;2.20;;
54384;SDS011;40284;52.878;5.998;2023-04-25T08:19:22;13.20;;;2.90;;
54384;SDS011;40284;52.878;5.998;2023-04-25T08:21:48;12.35;;;3.67;;
54384;SDS011;40284;52.878;5.998;2023-04-25T08:24:16;10.88;;;2.40;;
54384;SDS011;40284;52.878;5.998;2023-04-25T08:26:42;9.45;;;1.75;;
54384;SDS011;40284;52.878;5.998;2023-04-25T08:29:08;8.35;;;2.00;;
54384;SDS011;40284;52.878;5.998;2023-04-25T08:31:34;3.88;;;1.38;;
54384;SDS011;40284;52.878;5.998;2023-04-25T08:34:00;8.50;;;2.15;;
54384;SDS011;40284;52.878;5.998;2023-04-25T08:36:27;5.05;;;1.20;;
54384;SDS011;40284;52.878;5.998;2023-04-25T08:38:53;5.53;;;1.52;;
54384;SDS011;40284;52.878;5.998;2023-04-25T08:41:20;9.20;;;1.90;;
54384;SDS011;40284;52.878;5.998;2023-04-25T08:43:47;7.38;;;1.85;;
54384;SDS011;40284;52.878;5.998;2023-04-25T08:46:14;6.68;;;2.22;;
54384;SDS011;40284;52.878;5.998;2023-04-25T08:48:43;11.02;;;4.72;;
54384;SDS011;40284;52.878;5.998;2023-04-25T08:51:12;4.18;;;1.52;;
54384;SDS011;40284;52.878;5.998;2023-04-25T08:53:40;8.88;;;2.08;;
54384;SDS011;40284;52.878;5.998;2023-04-25T08:56:08;12.38;;;2.45;;
54384;SDS011;40284;52.878;5.998;2023-04-25T08:58:34;6.45;;;1.90;;
54384;SDS011;40284;52.878;5.998;2023-04-25T09:01:01;7.13;;;2.00;;
54384;SDS011;40284;52.878;5.998;2023-04-25T09:03:27;11.20;;;2.28;;
54384;SDS011;40284;52.878;5.998;2023-04-25T09:05:53;6.78;;;1.60;;
54384;SDS011;40284;52.878;5.998;2023-04-25T09:08:20;7.30;;;1.67;;
54384;SDS011;40284;52.878;5.998;2023-04-25T09:10:46;6.60;;;1.80;;
54384;SDS011;40284;52.878;5.998;2023-04-25T09:13:13;6.00;;;1.98;;
54384;SDS011;40284;52.878;5.998;2023-04-25T09:15:49;9.23;;;2.75;;
54384;SDS011;40284;52.878;5.998;2023-04-25T09:18:29;10.32;;;2.17;;
54384;SDS011;40284;52.878;5.998;2023-04-25T09:20:56;9.20;;;1.90;;
54384;SDS011;40284;52.878;5.998;2023-04-25T09:23:22;10.52;;;1.92;;
54384;SDS011;40284;52.878;5.998;2023-04-25T09:25:49;10.13;;;1.88;;
54384;SDS011;40284;52.878;5.998;2023-04-25T09:28:16;10.32;;;2.08;;
54384;SDS011;40284;52.878;5.998;2023-04-25T09:30:42;9.10;;;1.90;;
54384;SDS011;40284;52.878;5.998;2023-04-25T09:33:09;5.43;;;2.03;;
54384;SDS011;40284;52.878;5.998;2023-04-25T09:35:40;6.10;;;2.00;;
54384;SDS011;40284;52.878;5.998;2023-04-25T09:40:39;11.18;;;2.10;;
54384;SDS011;40284;52.878;5.998;2023-04-25T09:43:08;10.98;;;2.20;;
54384;SDS011;40284;52.878;5.998;2023-04-25T09:45:40;12.70;;;2.83;;
54384;SDS011;40284;52.878;5.998;2023-04-25T09:48:06;8.20;;;2.20;;
54384;SDS011;40284;52.878;5.998;2023-04-25T09:50:32;11.82;;;2.63;;
54384;SDS011;40284;52.878;5.998;2023-04-25T09:53:05;11.32;;;2.65;;
54384;SDS011;40284;52.878;5.998;2023-04-25T09:55:32;7.22;;;1.88;;
54384;SDS011;40284;52.878;5.998;2023-04-25T09:57:59;4.82;;;2.10;;
54384;SDS011;40284;52.878;5.998;2023-04-25T10:00:27;12.77;;;1.77;;
54384;SDS011;40284;52.878;5.998;2023-04-25T10:02:54;3.45;;;1.70;;
54384;SDS011;40284;52.878;5.998;2023-04-25T10:05:20;7.88;;;2.90;;
54384;SDS011;40284;52.878;5.998;2023-04-25T10:07:47;7.20;;;2.45;;
54384;SDS011;40284;52.878;5.998;2023-04-25T10:10:13;9.68;;;2.95;;
54384;SDS011;40284;52.878;5.998;2023-04-25T10:12:40;8.52;;;2.13;;
54384;SDS011;40284;52.878;5.998;2023-04-25T10:15:08;8.02;;;2.47;;
54384;SDS011;40284;52.878;5.998;2023-04-25T10:17:34;8.00;;;1.88;;
54384;SDS011;40284;52.878;5.998;2023-04-25T10:20:04;7.50;;;1.90;;
54384;SDS011;40284;52.878;5.998;2023-04-25T10:22:36;11.95;;;1.70;;
54384;SDS011;40284;52.878;5.998;2023-04-25T10:25:02;8.38;;;2.30;;
54384;SDS011;40284;52.878;5.998;2023-04-25T10:27:30;10.13;;;1.98;;
54384;SDS011;40284;52.878;5.998;2023-04-25T10:32:30;6.80;;;1.35;;
54384;SDS011;40284;52.878;5.998;2023-04-25T10:34:57;11.35;;;2.10;;
54384;SDS011;40284;52.878;5.998;2023-04-25T10:37:24;8.95;;;2.10;;
54384;SDS011;40284;52.878;5.998;2023-04-25T10:39:50;6.35;;;1.85;;
54384;SDS011;40284;52.878;5.998;2023-04-25T10:42:18;8.18;;;2.10;;
54384;SDS011;40284;52.878;5.998;2023-04-25T10:45:00;11.65;;;2.47;;
54384;SDS011;40284;52.878;5.998;2023-04-25T10:47:38;8.82;;;2.08;;
54384;SDS011;40284;52.878;5.998;2023-04-25T10:50:09;6.80;;;1.70;;
54384;SDS011;40284;52.878;5.998;2023-04-25T10:52:36;9.60;;;1.52;;
54384;SDS011;40284;52.878;5.998;2023-04-25T10:55:05;6.60;;;1.80;;
54384;SDS011;40284;52.878;5.998;2023-04-25T10:57:41;9.77;;;1.85;;
54384;SDS011;40284;52.878;5.998;2023-04-25T11:00:13;7.03;;;2.00;;
54384;SDS011;40284;52.878;5.998;2023-04-25T11:02:40;9.98;;;2.15;;
54384;SDS011;40284;52.878;5.998;2023-04-25T11:05:07;5.50;;;1.70;;
54384;SDS011;40284;52.878;5.998;2023-04-25T11:07:45;7.15;;;2.47;;
54384;SDS011;40284;52.878;5.998;2023-04-25T11:10:11;5.22;;;1.63;;
54384;SDS011;40284;52.878;5.998;2023-04-25T11:12:37;4.35;;;1.20;;
54384;SDS011;40284;52.878;5.998;2023-04-25T11:15:04;9.68;;;2.42;;
54384;SDS011;40284;52.878;5.998;2023-04-25T11:17:31;9.70;;;1.40;;
54384;SDS011;40284;52.878;5.998;2023-04-25T11:19:58;9.38;;;2.08;;
54384;SDS011;40284;52.878;5.998;2023-04-25T11:22:24;6.32;;;2.15;;
54384;SDS011;40284;52.878;5.998;2023-04-25T11:24:50;9.93;;;2.55;;
54384;SDS011;40284;52.878;5.998;2023-04-25T11:27:16;11.15;;;2.40;;
54384;SDS011;40284;52.878;5.998;2023-04-25T11:29:42;12.05;;;2.97;;
54384;SDS011;40284;52.878;5.998;2023-04-25T11:32:09;10.77;;;2.10;;
54384;SDS011;40284;52.878;5.998;2023-04-25T11:34:35;7.35;;;1.70;;
54384;SDS011;40284;52.878;5.998;2023-04-25T11:37:01;7.93;;;2.53;;
54384;SDS011;40284;52.878;5.998;2023-04-25T11:39:28;3.95;;;1.67;;
54384;SDS011;40284;52.878;5.998;2023-04-25T11:41:54;6.60;;;1.88;;
54384;SDS011;40284;52.878;5.998;2023-04-25T11:44:20;17.77;;;2.78;;
54384;SDS011;40284;52.878;5.998;2023-04-25T11:46:47;11.68;;;2.45;;
54384;SDS011;40284;52.878;5.998;2023-04-25T11:49:14;8.20;;;1.73;;
54384;SDS011;40284;52.878;5.998;2023-04-25T11:51:44;6.15;;;1.70;;
54384;SDS011;40284;52.878;5.998;2023-04-25T11:54:11;7.32;;;1.55;;
54384;SDS011;40284;52.878;5.998;2023-04-25T11:56:37;8.07;;;2.03;;
54384;SDS011;40284;52.878;5.998;2023-04-25T11:59:06;6.75;;;1.80;;
54384;SDS011;40284;52.878;5.998;2023-04-25T12:01:33;5.18;;;1.58;;
54384;SDS011;40284;52.878;5.998;2023-04-25T12:06:45;7.47;;;1.98;;
54384;SDS011;40284;52.878;5.998;2023-04-25T12:09:12;5.80;;;1.80;;
54384;SDS011;40284;52.878;5.998;2023-04-25T12:11:44;8.93;;;2.05;;
54384;SDS011;40284;52.878;5.998;2023-04-25T12:14:11;6.03;;;1.73;;
54384;SDS011;40284;52.878;5.998;2023-04-25T12:16:41;6.72;;;2.65;;
54384;SDS011;40284;52.878;5.998;2023-04-25T12:19:07;5.20;;;1.50;;
54384;SDS011;40284;52.878;5.998;2023-04-25T12:21:33;6.97;;;1.80;;
54384;SDS011;40284;52.878;5.998;2023-04-25T12:24:09;10.40;;;2.92;;
54384;SDS011;40284;52.878;5.998;2023-04-25T12:26:49;7.63;;;1.70;;
54384;SDS011;40284;52.878;5.998;2023-04-25T12:29:16;7.90;;;1.67;;
54384;SDS011;40284;52.878;5.998;2023-04-25T12:31:42;8.13;;;1.88;;
54384;SDS011;40284;52.878;5.998;2023-04-25T12:34:09;6.72;;;2.05;;
54384;SDS011;40284;52.878;5.998;2023-04-25T12:36:35;7.97;;;2.00;;
54384;SDS011;40284;52.878;5.998;2023-04-25T12:39:01;9.35;;;2.17;;
54384;SDS011;40284;52.878;5.998;2023-04-25T12:41:29;9.07;;;3.10;;
54384;SDS011;40284;52.878;5.998;2023-04-25T12:43:55;10.38;;;2.17;;
54384;SDS011;40284;52.878;5.998;2023-04-25T12:46:21;5.88;;;1.80;;
54384;SDS011;40284;52.878;5.998;2023-04-25T12:48:48;6.95;;;1.52;;
54384;SDS011;40284;52.878;5.998;2023-04-25T12:51:14;9.90;;;2.05;;
54384;SDS011;40284;52.878;5.998;2023-04-25T12:53:40;7.18;;;1.75;;
54384;SDS011;40284;52.878;5.998;2023-04-25T12:56:07;6.50;;;1.70;;
54384;SDS011;40284;52.878;5.998;2023-04-25T12:58:33;6.60;;;1.73;;
54384;SDS011;40284;52.878;5.998;2023-04-25T13:00:59;7.22;;;1.88;;
54384;SDS011;40284;52.878;5.998;2023-04-25T13:03:25;7.50;;;1.48;;
54384;SDS011;40284;52.878;5.998;2023-04-25T13:05:52;6.72;;;1.67;;
54384;SDS011;40284;52.878;5.998;2023-04-25T13:08:18;6.32;;;1.88;;
54384;SDS011;40284;52.878;5.998;2023-04-25T13:10:44;7.93;;;1.38;;
54384;SDS011;40284;52.878;5.998;2023-04-25T13:13:10;6.18;;;1.73;;
54384;SDS011;40284;52.878;5.998;2023-04-25T13:15:36;4.53;;;1.70;;
54384;SDS011;40284;52.878;5.998;2023-04-25T13:18:03;9.73;;;1.45;;
54384;SDS011;40284;52.878;5.998;2023-04-25T13:20:32;5.60;;;1.75;;
54384;SDS011;40284;52.878;5.998;2023-04-25T13:22:58;3.20;;;1.45;;
54384;SDS011;40284;52.878;5.998;2023-04-25T13:25:25;9.38;;;2.63;;
54384;SDS011;40284;52.878;5.998;2023-04-25T13:27:51;9.55;;;1.90;;
54384;SDS011;40284;52.878;5.998;2023-04-25T13:30:17;6.35;;;2.08;;
54384;SDS011;40284;52.878;5.998;2023-04-25T13:32:43;8.57;;;1.77;;
54384;SDS011;40284;52.878;5.998;2023-04-25T13:35:13;8.65;;;1.55;;
54384;SDS011;40284;52.878;5.998;2023-04-25T13:37:40;5.40;;;1.65;;
54384;SDS011;40284;52.878;5.998;2023-04-25T13:40:07;9.80;;;2.08;;
54384;SDS011;40284;52.878;5.998;2023-04-25T13:42:35;7.85;;;2.10;;
54384;SDS011;40284;52.878;5.998;2023-04-25T13:45:01;5.20;;;1.83;;
54384;SDS011;40284;52.878;5.998;2023-04-25T13:47:27;5.55;;;1.90;;
54384;SDS011;40284;52.878;5.998;2023-04-25T13:49:54;5.60;;;1.60;;
54384;SDS011;40284;52.878;5.998;2023-04-25T13:52:20;7.93;;;2.00;;
54384;SDS011;40284;52.878;5.998;2023-04-25T13:54:46;6.68;;;2.28;;
54384;SDS011;40284;52.878;5.998;2023-04-25T13:57:12;8.77;;;2.40;;
54384;SDS011;40284;52.878;5.998;2023-04-25T13:59:39;11.20;;;3.22;;
54384;SDS011;40284;52.878;5.998;2023-04-25T14:02:06;8.30;;;2.80;;
54384;SDS011;40284;52.878;5.998;2023-04-25T14:04:32;7.93;;;2.25;;
54384;SDS011;40284;52.878;5.998;2023-04-25T14:06:58;10.70;;;2.05;;
54384;SDS011;40284;52.878;5.998;2023-04-25T14:09:24;9.25;;;1.95;;
54384;SDS011;40284;52.878;5.998;2023-04-25T14:11:52;8.93;;;2.05;;
54384;SDS011;40284;52.878;5.998;2023-04-25T14:14:18;6.70;;;1.80;;
54384;SDS011;40284;52.878;5.998;2023-04-25T14:16:45;11.18;;;2.10;;
54384;SDS011;40284;52.878;5.998;2023-04-25T14:19:13;12.18;;;1.98;;
54384;SDS011;40284;52.878;5.998;2023-04-25T14:21:39;10.07;;;2.47;;
54384;SDS011;40284;52.878;5.998;2023-04-25T14:24:06;10.43;;;2.90;;
54384;SDS011;40284;52.878;5.998;2023-04-25T14:26:35;10.07;;;2.10;;
54384;SDS011;40284;52.878;5.998;2023-04-25T14:29:02;7.63;;;2.03;;
54384;SDS011;40284;52.878;5.998;2023-04-25T14:31:28;8.40;;;2.00;;
54384;SDS011;40284;52.878;5.998;2023-04-25T14:33:54;10.95;;;2.58;;
54384;SDS011;40284;52.878;5.998;2023-04-25T14:36:20;6.03;;;1.98;;
54384;SDS011;40284;52.878;5.998;2023-04-25T14:38:46;6.20;;;2.40;;
54384;SDS011;40284;52.878;5.998;2023-04-25T14:41:12;5.97;;;1.65;;
54384;SDS011;40284;52.878;5.998;2023-04-25T14:43:38;6.28;;;2.55;;
54384;SDS011;40284;52.878;5.998;2023-04-25T14:46:05;10.43;;;2.20;;
54384;SDS011;40284;52.878;5.998;2023-04-25T14:48:32;11.05;;;2.50;;
54384;SDS011;40284;52.878;5.998;2023-04-25T14:50:58;12.70;;;2.65;;
54384;SDS011;40284;52.878;5.998;2023-04-25T14:53:25;6.85;;;1.83;;
54384;SDS011;40284;52.878;5.998;2023-04-25T14:55:51;13.85;;;3.05;;